createdAt,value
2017-09-27T00:01:43.934Z,13.60
2017-09-27T00:04:11.446Z,13.60
2017-09-27T00:06:38.986Z,13.60
2017-09-27T00:09:06.501Z,13.60
2017-09-27T00:11:34.077Z,13.60
2017-09-27T00:14:03.440Z,13.50
2017-09-27T00:16:31.762Z,13.60
2017-09-27T00:19:00.069Z,13.70
2017-09-27T00:21:27.586Z,13.60
2017-09-27T00:23:55.121Z,13.70
2017-09-27T00:26:23.409Z,13.70
2017-09-27T00:28:51.713Z,13.70
2017-09-27T00:31:19.232Z,13.70
2017-09-27T00:33:47.529Z,13.70
2017-09-27T00:36:15.045Z,13.70
2017-09-27T00:38:42.591Z,13.60
2017-09-27T02:08:00.797Z,13.70
2017-09-27T02:10:28.328Z,13.80
2017-09-27T02:12:55.844Z,13.70
2017-09-27T02:15:23.382Z,13.70
2017-09-27T02:17:50.906Z,13.70
2017-09-27T02:20:19.601Z,13.60
2017-09-27T02:22:48.279Z,13.60
2017-09-27T02:25:15.805Z,13.60
2017-09-27T02:27:44.477Z,13.60
2017-09-27T02:30:11.994Z,13.60
2017-09-27T02:32:40.293Z,13.70
2017-09-27T02:35:07.821Z,13.70
2017-09-27T02:37:35.766Z,13.70
2017-09-27T02:40:03.677Z,13.60
2017-09-27T02:42:31.972Z,13.60
2017-09-27T02:44:59.498Z,13.60
2017-09-27T02:47:27.035Z,13.60
2017-09-27T02:49:54.545Z,13.70
2017-09-27T02:52:22.092Z,13.80
2017-09-27T02:54:50.380Z,13.70
2017-09-27T02:57:18.660Z,13.80
2017-09-27T02:59:46.193Z,13.80
2017-09-27T03:02:14.845Z,13.70
2017-09-27T03:04:43.524Z,13.60
2017-09-27T03:07:11.044Z,13.70
2017-09-27T03:09:39.341Z,13.80
2017-09-27T03:12:06.856Z,13.80
2017-09-27T03:14:35.521Z,13.70
2017-09-27T03:17:03.046Z,13.70
2017-09-27T03:19:30.580Z,13.70
2017-09-27T03:21:58.864Z,13.70
2017-09-27T03:24:27.189Z,13.70
2017-09-27T03:26:54.705Z,13.70
2017-09-27T03:29:22.990Z,13.70
2017-09-27T03:31:50.517Z,13.70
2017-09-27T03:34:18.040Z,13.70
2017-09-27T03:36:45.573Z,13.70
2017-09-27T03:39:13.085Z,13.70
2017-09-27T03:41:40.616Z,13.70
2017-09-27T03:44:08.135Z,13.80
2017-09-27T07:17:30.364Z,14.10
2017-09-27T07:19:59.021Z,14.30
2017-09-27T07:22:26.954Z,14.30
2017-09-27T07:24:54.468Z,14.20
2017-09-27T07:27:22.411Z,14.20
2017-09-27T07:29:49.937Z,14.20
2017-09-27T07:32:17.457Z,14.50
2017-09-27T07:37:14.648Z,14.50
2017-09-27T07:39:42.198Z,14.50
2017-09-27T07:54:34.108Z,14.60
2017-09-27T07:57:02.759Z,14.10
